createdAt,value
2019-06-07T00:00:36.605Z,0.00
2019-06-07T00:01:22.379Z,0.00
2019-06-07T00:02:27.889Z,0.00
2019-06-07T00:03:33.403Z,0.00
2019-06-07T00:04:38.914Z,0.00
2019-06-07T00:05:44.423Z,0.00
2019-06-07T00:06:49.942Z,0.00
2019-06-07T00:07:55.444Z,0.00
2019-06-07T00:09:00.959Z,0.00
2019-06-07T00:10:06.907Z,0.00
2019-06-07T00:11:15.650Z,0.00
2019-06-07T00:12:21.092Z,0.00
2019-06-07T00:13:23.020Z,0.00
2019-06-07T00:14:28.523Z,0.00
2019-06-07T00:15:34.048Z,0.00
2019-06-07T00:16:39.546Z,0.00
2019-06-07T00:17:45.055Z,0.00
2019-06-07T00:18:50.572Z,0.00
2019-06-07T00:19:56.085Z,0.00
2019-06-07T00:21:01.592Z,0.00
2019-06-07T00:22:16.577Z,0.00
2019-06-07T00:23:17.212Z,0.00
2019-06-07T00:24:19.400Z,0.00
2019-06-07T00:25:24.575Z,0.00
2019-06-07T00:26:29.171Z,0.00
2019-06-07T00:27:34.671Z,0.00
2019-06-07T00:28:40.211Z,0.00
2019-06-07T00:29:45.691Z,0.00
2019-06-07T00:30:52.663Z,0.00
2019-06-07T00:31:56.720Z,0.00
2019-06-07T00:33:02.233Z,0.00
2019-06-07T00:34:10.314Z,0.00
2019-06-07T00:35:15.451Z,0.00
2019-06-07T00:36:20.685Z,0.00
2019-06-07T00:37:25.616Z,0.00
2019-06-07T00:38:29.796Z,0.00
2019-06-07T00:39:35.311Z,0.00
2019-06-07T00:40:40.820Z,0.00
2019-06-07T00:41:46.332Z,0.00
2019-06-07T00:42:51.849Z,0.00
2019-06-07T00:43:57.362Z,0.00
2019-06-07T00:45:02.871Z,0.00
2019-06-07T00:46:08.385Z,0.00
2019-06-07T00:47:16.434Z,0.00
2019-06-07T00:48:27.538Z,0.00
2019-06-07T00:49:39.817Z,0.00
2019-06-07T00:50:30.424Z,0.00
2019-06-07T00:51:50.159Z,0.00
2019-06-07T00:53:14.096Z,0.00
2019-06-07T00:53:46.975Z,0.00
2019-06-07T00:54:52.482Z,0.00
2019-06-07T00:55:57.992Z,0.00
2019-06-07T00:57:03.551Z,0.00
2019-06-07T00:58:09.011Z,0.00
2019-06-07T00:59:16.879Z,0.00
2019-06-07T01:00:22.292Z,0.00
2019-06-07T01:01:25.727Z,0.00
2019-06-07T01:02:31.677Z,0.00
2019-06-07T01:03:36.588Z,0.00
2019-06-07T01:04:42.143Z,0.00
2019-06-07T01:05:47.609Z,0.00
2019-06-07T01:06:53.123Z,0.00
2019-06-07T01:07:58.660Z,0.00
2019-06-07T01:09:04.135Z,0.00
2019-06-07T01:10:09.643Z,0.00
2019-06-07T01:11:15.954Z,0.00
2019-06-07T01:12:22.099Z,0.00
2019-06-07T01:13:26.879Z,0.00
2019-06-07T01:14:31.715Z,0.00
2019-06-07T01:15:37.226Z,0.00
2019-06-07T01:16:56.389Z,0.00
2019-06-07T01:18:25.847Z,0.00
2019-06-07T01:18:53.741Z,0.00
2019-06-07T01:19:59.257Z,0.00
2019-06-07T01:21:04.768Z,0.00
2019-06-07T01:22:10.282Z,0.00
2019-06-07T01:23:56.590Z,0.00
2019-06-07T01:24:24.575Z,0.00
2019-06-07T01:25:28.906Z,0.00
2019-06-07T01:26:32.338Z,0.00
2019-06-07T01:27:37.863Z,0.00
2019-06-07T01:28:43.381Z,0.00
2019-06-07T01:29:48.855Z,0.00
2019-06-07T01:30:54.379Z,0.00
2019-06-07T01:31:59.895Z,0.00
2019-06-07T01:33:05.397Z,0.00
2019-06-07T01:34:10.911Z,0.00
2019-06-07T01:35:16.633Z,0.00
2019-06-07T01:36:24.414Z,0.00
2019-06-07T01:37:28.469Z,0.00
2019-06-07T01:38:32.962Z,0.00
2019-06-07T01:39:38.471Z,0.00
2019-06-07T01:40:43.980Z,0.00
2019-06-07T01:41:49.493Z,0.00
2019-06-07T01:42:55.010Z,0.00
2019-06-07T01:44:00.523Z,0.00
2019-06-07T01:45:06.026Z,0.00
2019-06-07T01:46:11.552Z,0.00
2019-06-07T01:47:17.860Z,0.00
2019-06-07T01:48:25.396Z,0.00
2019-06-07T01:49:29.495Z,0.00
2019-06-07T01:50:33.592Z,0.00
2019-06-07T01:51:39.118Z,0.00
2019-06-07T01:52:44.611Z,0.00
2019-06-07T01:53:50.125Z,0.00
2019-06-07T01:54:58.438Z,0.00
2019-06-07T01:56:01.143Z,0.00
2019-06-07T01:57:06.674Z,0.00
2019-06-07T01:58:12.169Z,0.00
2019-06-07T01:59:17.849Z,0.00
2019-06-07T02:00:24.117Z,0.00
2019-06-07T02:01:34.678Z,0.00
2019-06-07T02:02:34.220Z,0.00
2019-06-07T02:03:39.724Z,0.00
2019-06-07T02:04:45.303Z,0.00
2019-06-07T02:05:50.759Z,0.00
2019-06-07T02:06:56.264Z,0.00
2019-06-07T02:08:01.786Z,0.00
2019-06-07T02:09:07.290Z,0.00
2019-06-07T02:10:12.810Z,0.00
2019-06-07T02:11:20.605Z,0.00
2019-06-07T02:12:32.271Z,0.00
2019-06-07T02:13:30.710Z,0.00
2019-06-07T02:14:34.845Z,0.00
2019-06-07T02:15:40.354Z,0.00
2019-06-07T02:16:45.871Z,0.00
2019-06-07T02:17:51.379Z,0.00
2019-06-07T02:19:01.926Z,0.00
2019-06-07T02:20:02.420Z,0.00
2019-06-07T02:21:07.911Z,0.00
2019-06-07T02:22:13.426Z,0.00
2019-06-07T02:23:20.296Z,0.00
2019-06-07T02:24:25.281Z,0.00
2019-06-07T02:25:46.138Z,0.00
2019-06-07T02:26:35.477Z,0.00
2019-06-07T02:27:40.991Z,0.00
2019-06-07T02:28:46.498Z,0.00
2019-06-07T02:29:52.017Z,0.00
2019-06-07T02:31:00.228Z,0.00
2019-06-07T02:32:03.068Z,0.00
2019-06-07T02:33:08.540Z,0.00
2019-06-07T02:34:14.060Z,0.00
2019-06-07T02:35:19.566Z,0.00
2019-06-07T02:36:29.707Z,0.00
2019-06-07T02:37:34.089Z,0.00
2019-06-07T02:38:37.830Z,0.00
2019-06-07T02:39:41.615Z,0.00
2019-06-07T02:40:47.124Z,0.00
2019-06-07T02:41:52.637Z,0.00
2019-06-07T02:42:58.158Z,0.00
2019-06-07T02:44:03.668Z,0.00
2019-06-07T02:45:10.858Z,0.00
2019-06-07T02:46:28.209Z,0.00
2019-06-07T02:47:20.197Z,0.00
2019-06-07T02:48:27.988Z,0.00
2019-06-07T02:49:37.301Z,0.00
2019-06-07T02:50:38.783Z,0.00
2019-06-07T02:51:42.253Z,0.00
2019-06-07T02:52:49.100Z,0.00
2019-06-07T02:53:53.270Z,0.00
2019-06-07T02:54:58.777Z,0.00
2019-06-07T02:57:09.811Z,0.00
2019-06-07T02:58:15.312Z,0.00
2019-06-07T02:59:44.826Z,0.00
2019-06-07T03:00:45.690Z,4.00
2019-06-07T03:01:38.581Z,4.00
2019-06-07T03:02:41.213Z,0.00
2019-06-07T03:03:42.873Z,0.00
2019-06-07T03:04:48.379Z,4.00
2019-06-07T03:05:53.915Z,4.00
2019-06-07T03:06:59.405Z,0.00
2019-06-07T03:08:04.914Z,4.00
2019-06-07T03:09:10.427Z,0.00
2019-06-07T03:10:15.933Z,4.00
2019-06-07T03:11:21.453Z,4.00
2019-06-07T03:12:28.972Z,4.00
2019-06-07T03:13:34.190Z,4.00
2019-06-07T03:14:39.398Z,4.00
2019-06-07T03:15:49.966Z,4.00
2019-06-07T03:16:49.011Z,8.00
2019-06-07T03:17:54.519Z,4.00
2019-06-07T03:19:00.027Z,8.00
2019-06-07T03:20:05.551Z,8.00
2019-06-07T03:21:11.048Z,8.00
2019-06-07T03:22:16.562Z,12.00
2019-06-07T03:23:22.081Z,8.00
2019-06-07T03:24:30.091Z,12.00
2019-06-07T03:25:35.726Z,12.00
2019-06-07T03:27:23.992Z,12.00
2019-06-07T03:27:50.048Z,12.00
2019-06-07T03:28:49.645Z,16.00
2019-06-07T03:29:55.143Z,12.00
2019-06-07T03:31:02.698Z,16.00
2019-06-07T03:32:06.165Z,12.00
2019-06-07T03:33:11.677Z,16.00
2019-06-07T03:34:17.188Z,20.00
2019-06-07T03:35:22.697Z,16.00
2019-06-07T03:36:29.634Z,20.00
2019-06-07T03:37:37.630Z,20.00
2019-06-07T03:38:39.842Z,20.00
2019-06-07T03:39:44.747Z,20.00
2019-06-07T03:40:50.254Z,20.00
2019-06-07T03:42:06.389Z,24.00
2019-06-07T03:43:01.276Z,24.00
2019-06-07T03:44:06.789Z,24.00
2019-06-07T03:45:12.302Z,24.00
2019-06-07T03:46:17.819Z,24.00
2019-06-07T03:47:23.327Z,28.00
2019-06-07T03:48:30.216Z,28.00
2019-06-07T03:49:36.462Z,32.00
2019-06-07T03:50:42.389Z,32.00
2019-06-07T03:51:45.371Z,32.00
2019-06-07T03:52:51.182Z,32.00
2019-06-07T03:53:56.394Z,32.00
2019-06-07T03:55:01.905Z,32.00
2019-06-07T03:56:07.425Z,36.00
2019-06-07T03:57:12.935Z,36.00
2019-06-07T03:58:31.527Z,32.00
2019-06-07T03:59:23.956Z,36.00
2019-06-07T04:00:32.512Z,36.00
2019-06-07T04:01:37.755Z,40.00
2019-06-07T04:02:41.931Z,40.00
2019-06-07T04:03:51.372Z,40.00
2019-06-07T04:04:51.505Z,40.00
2019-06-07T04:05:57.020Z,44.00
2019-06-07T04:07:02.530Z,44.00
2019-06-07T04:08:08.043Z,40.00
2019-06-07T04:09:13.548Z,44.00
2019-06-07T04:10:19.066Z,44.00
2019-06-07T04:11:24.577Z,48.00
2019-06-07T04:12:31.859Z,48.00
2019-06-07T04:13:39.919Z,48.00
2019-06-07T04:14:42.966Z,52.00
2019-06-07T04:15:46.912Z,52.00
2019-06-07T04:16:52.593Z,48.00
2019-06-07T04:18:02.353Z,52.00
2019-06-07T04:19:03.174Z,52.00
2019-06-07T04:20:08.690Z,52.00
2019-06-07T04:21:14.181Z,48.00
2019-06-07T04:22:19.703Z,52.00
2019-06-07T04:23:28.281Z,52.00
2019-06-07T04:24:31.129Z,52.00
2019-06-07T04:25:39.504Z,52.00
2019-06-07T04:26:43.743Z,52.00
2019-06-07T04:27:47.242Z,56.00
2019-06-07T04:29:31.754Z,56.00
2019-06-07T04:30:07.579Z,56.00
2019-06-07T04:31:03.779Z,60.00
2019-06-07T04:32:09.301Z,60.00
2019-06-07T04:33:14.820Z,56.00
2019-06-07T04:34:20.314Z,60.00
2019-06-07T04:35:25.826Z,60.00
2019-06-07T04:36:45.696Z,60.00
2019-06-07T04:37:40.648Z,60.00
2019-06-07T04:38:42.732Z,64.00
2019-06-07T04:39:47.875Z,64.00
2019-06-07T04:40:53.384Z,68.00
2019-06-07T04:41:58.893Z,68.00
2019-06-07T04:43:04.415Z,72.00
2019-06-07T04:44:09.918Z,72.00
2019-06-07T04:45:33.193Z,72.00
2019-06-07T04:46:20.962Z,72.00
2019-06-07T04:47:26.452Z,72.00
2019-06-07T04:48:33.256Z,68.00
2019-06-07T04:49:41.786Z,68.00
2019-06-07T04:50:44.108Z,72.00
2019-06-07T04:51:48.514Z,72.00
2019-06-07T04:52:54.020Z,76.00
2019-06-07T04:53:59.522Z,80.00
2019-06-07T04:55:05.037Z,84.00
2019-06-07T04:56:10.546Z,84.00
2019-06-07T04:57:16.053Z,88.00
2019-06-07T04:58:21.567Z,88.00
2019-06-07T05:00:10.943Z,92.00
2019-06-07T05:00:55.618Z,96.00
2019-06-07T05:01:41.389Z,100.00
2019-06-07T05:02:43.799Z,104.00
2019-06-07T05:03:49.141Z,108.00
2019-06-07T05:04:54.644Z,108.00
2019-06-07T05:06:00.151Z,108.00
2019-06-07T05:07:05.664Z,100.00
2019-06-07T05:08:26.934Z,104.00
2019-06-07T05:09:16.685Z,100.00
2019-06-07T05:10:22.197Z,96.00
2019-06-07T05:11:27.729Z,100.00
2019-06-07T05:12:35.446Z,100.00
2019-06-07T05:13:43.048Z,96.00
2019-06-07T05:14:44.448Z,92.00
2019-06-07T05:15:49.761Z,96.00
2019-06-07T05:16:55.272Z,100.00
2019-06-07T05:18:00.783Z,100.00
2019-06-07T05:19:06.288Z,96.00
2019-06-07T05:20:11.805Z,92.00
2019-06-07T05:21:17.335Z,88.00
2019-06-07T05:22:22.829Z,88.00
2019-06-07T05:23:59.881Z,88.00
2019-06-07T05:24:35.611Z,84.00
2019-06-07T05:25:44.436Z,80.00
2019-06-07T05:26:44.889Z,80.00
2019-06-07T05:27:50.392Z,80.00
2019-06-07T05:28:55.900Z,84.00
2019-06-07T05:30:24.249Z,88.00
2019-06-07T05:31:07.971Z,80.00
2019-06-07T05:32:12.445Z,80.00
2019-06-07T05:33:17.950Z,76.00
2019-06-07T05:34:23.469Z,76.00
2019-06-07T05:35:28.975Z,80.00
2019-06-07T05:36:36.704Z,84.00
2019-06-07T05:37:43.781Z,84.00
2019-06-07T05:38:45.515Z,88.00
2019-06-07T05:39:51.025Z,84.00
2019-06-07T05:40:56.533Z,84.00
2019-06-07T05:42:02.042Z,84.00
2019-06-07T05:43:07.565Z,84.00
2019-06-07T05:44:14.949Z,88.00
2019-06-07T05:45:18.581Z,84.00
2019-06-07T05:46:24.108Z,88.00
2019-06-07T05:47:29.605Z,84.00
2019-06-07T05:48:36.637Z,84.00
2019-06-07T05:49:43.804Z,88.00
2019-06-07T05:50:56.011Z,88.00
2019-06-07T05:51:51.662Z,88.00
2019-06-07T05:52:57.235Z,84.00
2019-06-07T05:54:02.691Z,88.00
2019-06-07T05:55:08.202Z,88.00
2019-06-07T05:56:14.416Z,84.00
2019-06-07T05:57:19.218Z,84.00
2019-06-07T05:58:24.739Z,84.00
2019-06-07T05:59:30.255Z,84.00
2019-06-07T06:00:36.884Z,84.00
2019-06-07T06:01:52.363Z,84.00
2019-06-07T06:03:04.108Z,84.00
2019-06-07T06:03:52.303Z,84.00
2019-06-07T06:04:57.822Z,84.00
2019-06-07T06:06:03.372Z,84.00
2019-06-07T06:07:08.862Z,84.00
2019-06-07T06:08:14.349Z,84.00
2019-06-07T06:09:19.875Z,84.00
2019-06-07T06:10:25.360Z,84.00
2019-06-07T06:11:45.733Z,84.00
2019-06-07T06:12:40.876Z,80.00
2019-06-07T06:14:04.669Z,84.00
2019-06-07T06:14:47.423Z,84.00
2019-06-07T06:16:01.425Z,88.00
2019-06-07T06:16:58.444Z,84.00
2019-06-07T06:18:03.965Z,88.00
2019-06-07T06:19:09.473Z,84.00
2019-06-07T06:20:15.125Z,84.00
2019-06-07T06:21:20.734Z,88.00
2019-06-07T06:22:26.015Z,84.00
2019-06-07T06:23:31.568Z,88.00
2019-06-07T06:24:37.670Z,96.00
2019-06-07T06:25:49.788Z,96.00
2019-06-07T06:26:54.082Z,100.00
2019-06-07T06:28:10.175Z,104.00
2019-06-07T06:28:59.093Z,104.00
2019-06-07T06:30:04.611Z,104.00
2019-06-07T06:31:10.117Z,108.00
2019-06-07T06:32:41.308Z,108.00
2019-06-07T06:33:33.819Z,104.00
2019-06-07T06:34:26.670Z,104.00
2019-06-07T06:35:32.170Z,104.00
2019-06-07T06:36:39.748Z,104.00
2019-06-07T06:37:47.122Z,108.00
2019-06-07T06:38:49.702Z,108.00
2019-06-07T06:39:54.223Z,116.00
2019-06-07T06:41:15.158Z,120.00
2019-06-07T06:42:05.271Z,124.00
2019-06-07T06:43:10.795Z,132.00
2019-06-07T06:44:16.277Z,144.00
2019-06-07T06:45:21.793Z,152.00
2019-06-07T06:46:38.783Z,152.00
2019-06-07T06:47:32.824Z,164.00
2019-06-07T06:48:40.859Z,168.00
2019-06-07T06:49:46.138Z,172.00
2019-06-07T06:50:52.423Z,176.00
2019-06-07T06:51:54.867Z,184.00
2019-06-07T06:53:00.380Z,176.00
2019-06-07T06:54:05.899Z,168.00
2019-06-07T06:55:11.416Z,164.00
2019-06-07T06:56:16.925Z,160.00
2019-06-07T06:57:22.442Z,164.00
2019-06-07T06:58:27.954Z,148.00
2019-06-07T06:59:39.179Z,156.00
2019-06-07T07:00:46.343Z,152.00
2019-06-07T07:01:45.163Z,144.00
2019-06-07T07:03:41.838Z,160.00
2019-06-07T07:04:10.673Z,152.00
2019-06-07T07:05:01.033Z,148.00
2019-06-07T07:06:25.152Z,136.00
2019-06-07T07:07:12.066Z,136.00
2019-06-07T07:08:17.577Z,132.00
2019-06-07T07:09:23.094Z,136.00
2019-06-07T07:10:28.603Z,140.00
2019-06-07T07:11:34.117Z,124.00
2019-06-07T07:12:40.637Z,132.00
2019-06-07T07:13:49.177Z,144.00
2019-06-07T07:14:55.145Z,156.00
2019-06-07T07:15:58.388Z,160.00
2019-06-07T07:17:01.702Z,164.00
2019-06-07T07:18:08.859Z,184.00
2019-06-07T07:19:12.718Z,196.00
2019-06-07T07:20:18.242Z,204.00
2019-06-07T07:21:23.755Z,212.00
2019-06-07T07:22:29.275Z,220.00
2019-06-07T07:23:34.768Z,216.00
2019-06-07T07:24:40.296Z,220.00
2019-06-07T07:25:50.811Z,196.00
2019-06-07T07:26:53.938Z,204.00
2019-06-07T07:27:56.830Z,208.00
2019-06-07T07:29:02.342Z,216.00
2019-06-07T07:30:35.415Z,224.00
2019-06-07T07:31:13.375Z,248.00
2019-06-07T07:32:18.885Z,244.00
2019-06-07T07:33:24.392Z,248.00
2019-06-07T07:34:36.171Z,232.00
2019-06-07T07:35:35.424Z,236.00
2019-06-07T07:36:40.952Z,228.00
2019-06-07T07:37:53.527Z,220.00
2019-06-07T07:39:03.049Z,208.00
2019-06-07T07:40:21.366Z,212.00
2019-06-07T07:41:14.518Z,204.00
2019-06-07T07:42:20.647Z,196.00
2019-06-07T07:43:14.032Z,196.00
2019-06-07T07:44:19.545Z,200.00
2019-06-07T07:45:25.061Z,204.00
2019-06-07T07:46:30.630Z,212.00
2019-06-07T07:47:36.086Z,216.00
2019-06-07T07:48:41.602Z,204.00
2019-06-07T07:49:48.473Z,192.00
2019-06-07T07:50:56.927Z,192.00
2019-06-07T07:51:59.025Z,200.00
2019-06-07T07:53:03.660Z,208.00
2019-06-07T07:54:11.051Z,164.00
2019-06-07T07:55:14.751Z,156.00
2019-06-07T07:56:20.210Z,164.00
2019-06-07T07:57:25.717Z,176.00
2019-06-07T07:58:31.300Z,180.00
2019-06-07T07:59:42.154Z,172.00
2019-06-07T08:00:55.010Z,180.00
2019-06-07T08:01:48.666Z,180.00
2019-06-07T08:02:58.493Z,176.00
2019-06-07T08:03:58.825Z,168.00
2019-06-07T08:05:21.731Z,164.00
2019-06-07T08:06:09.847Z,172.00
2019-06-07T08:07:15.358Z,180.00
2019-06-07T08:08:20.897Z,144.00
2019-06-07T08:09:26.388Z,148.00
2019-06-07T08:10:31.910Z,168.00
2019-06-07T08:11:37.409Z,160.00
2019-06-07T08:13:00.493Z,152.00
2019-06-07T08:13:48.446Z,168.00
2019-06-07T08:14:58.558Z,168.00
2019-06-07T08:16:06.575Z,168.00
2019-06-07T08:17:05.025Z,168.00
2019-06-07T08:18:10.504Z,172.00
2019-06-07T08:19:16.024Z,172.00
2019-06-07T08:20:21.534Z,176.00
2019-06-07T08:21:27.382Z,172.00
2019-06-07T08:22:32.563Z,176.00
2019-06-07T08:23:38.076Z,172.00
2019-06-07T08:24:43.585Z,180.00
2019-06-07T08:25:49.259Z,180.00
2019-06-07T08:27:17.853Z,172.00
2019-06-07T08:28:00.140Z,180.00
2019-06-07T08:29:05.661Z,180.00
2019-06-07T08:30:46.657Z,184.00
2019-06-07T08:31:16.686Z,188.00
2019-06-07T08:32:22.195Z,188.00
2019-06-07T08:33:27.732Z,184.00
2019-06-07T08:34:33.302Z,188.00
2019-06-07T08:36:44.263Z,188.00
2019-06-07T08:38:33.822Z,192.00
2019-06-07T08:39:00.469Z,192.00
2019-06-07T08:40:01.970Z,192.00
2019-06-07T08:41:11.868Z,196.00
2019-06-07T08:42:17.671Z,196.00
2019-06-07T08:43:20.614Z,200.00
2019-06-07T08:44:25.501Z,196.00
2019-06-07T08:45:28.386Z,200.00
2019-06-07T08:46:33.932Z,204.00
2019-06-07T08:47:39.425Z,200.00
2019-06-07T08:48:44.942Z,208.00
2019-06-07T08:49:50.588Z,208.00
2019-06-07T08:51:00.720Z,208.00
2019-06-07T08:52:10.510Z,208.00
2019-06-07T08:53:12.114Z,208.00
2019-06-07T08:54:22.319Z,212.00
2019-06-07T08:55:18.026Z,212.00
2019-06-07T08:56:23.546Z,212.00
2019-06-07T08:57:29.062Z,204.00
2019-06-07T08:58:34.593Z,208.00
2019-06-07T08:59:40.083Z,208.00
2019-06-07T09:00:47.503Z,212.00
2019-06-07T09:01:53.701Z,212.00
2019-06-07T09:02:58.808Z,212.00
2019-06-07T09:04:07.654Z,216.00
2019-06-07T09:05:12.199Z,216.00
2019-06-07T09:07:01.014Z,216.00
2019-06-07T09:07:19.939Z,216.00
2019-06-07T09:08:30.319Z,216.00
2019-06-07T09:09:29.752Z,216.00
2019-06-07T09:10:35.243Z,216.00
2019-06-07T09:11:40.761Z,224.00
2019-06-07T09:12:46.272Z,224.00
2019-06-07T09:13:54.493Z,224.00
2019-06-07T09:15:12.105Z,224.00
2019-06-07T09:16:06.749Z,232.00
2019-06-07T09:17:12.080Z,236.00
2019-06-07T09:18:44.773Z,240.00
2019-06-07T09:19:19.372Z,248.00
2019-06-07T09:20:36.447Z,248.00
2019-06-07T09:21:30.400Z,248.00
2019-06-07T09:22:35.921Z,256.00
2019-06-07T09:23:41.453Z,260.00
2019-06-07T09:24:46.954Z,252.00
2019-06-07T09:26:02.590Z,248.00
2019-06-07T09:27:00.259Z,244.00
2019-06-07T09:28:13.998Z,248.00
2019-06-07T09:29:11.798Z,252.00
2019-06-07T09:30:18.565Z,248.00
2019-06-07T09:31:20.068Z,252.00
2019-06-07T09:32:25.575Z,252.00
2019-06-07T09:33:31.086Z,252.00
2019-06-07T09:34:36.733Z,256.00
2019-06-07T09:35:42.119Z,256.00
2019-06-07T09:36:47.662Z,240.00
2019-06-07T09:38:07.364Z,248.00
2019-06-07T09:38:59.560Z,256.00
2019-06-07T09:40:19.607Z,252.00
2019-06-07T09:41:09.911Z,260.00
2019-06-07T09:42:15.225Z,252.00
2019-06-07T09:44:26.760Z,260.00
2019-06-07T09:45:31.770Z,260.00
2019-06-07T09:46:37.279Z,268.00
2019-06-07T09:47:42.796Z,260.00
2019-06-07T09:49:10.762Z,276.00
2019-06-07T09:49:53.833Z,276.00
2019-06-07T09:51:00.891Z,280.00
2019-06-07T09:52:10.376Z,280.00
2019-06-07T09:53:21.633Z,288.00
2019-06-07T09:55:02.424Z,288.00
2019-06-07T09:55:24.736Z,296.00
2019-06-07T09:56:26.931Z,300.00
2019-06-07T09:57:32.448Z,304.00
2019-06-07T09:58:54.216Z,312.00
2019-06-07T09:59:43.484Z,316.00
2019-06-07T10:00:49.007Z,320.00
2019-06-07T10:01:54.518Z,316.00
2019-06-07T10:03:07.891Z,332.00
2019-06-07T10:04:09.020Z,336.00
2019-06-07T10:05:14.162Z,336.00
2019-06-07T10:06:16.588Z,332.00
2019-06-07T10:07:31.205Z,332.00
2019-06-07T10:09:42.227Z,332.00
2019-06-07T10:10:38.665Z,336.00
2019-06-07T10:11:44.174Z,344.00
2019-06-07T10:12:49.716Z,344.00
2019-06-07T10:13:55.206Z,352.00
2019-06-07T10:15:00.735Z,348.00
2019-06-07T10:16:07.092Z,356.00
2019-06-07T10:17:11.776Z,356.00
2019-06-07T10:18:17.273Z,356.00
2019-06-07T10:19:22.797Z,360.00
2019-06-07T10:20:28.310Z,360.00
2019-06-07T10:21:33.834Z,364.00
2019-06-07T10:22:39.353Z,368.00
2019-06-07T10:23:44.868Z,372.00
2019-06-07T10:24:50.382Z,376.00
2019-06-07T10:25:55.913Z,376.00
2019-06-07T10:27:01.710Z,388.00
2019-06-07T10:28:08.247Z,404.00
2019-06-07T10:29:12.458Z,400.00
2019-06-07T10:30:17.978Z,408.00
2019-06-07T10:31:23.497Z,412.00
2019-06-07T10:32:29.027Z,412.00
2019-06-07T10:33:34.521Z,420.00
2019-06-07T10:34:40.044Z,428.00
2019-06-07T10:35:45.570Z,440.00
2019-06-07T10:36:51.112Z,440.00
2019-06-07T10:37:58.266Z,440.00
2019-06-07T10:39:02.879Z,460.00
2019-06-07T10:40:09.090Z,468.00
2019-06-07T10:41:13.169Z,460.00
2019-06-07T10:42:18.668Z,460.00
2019-06-07T10:43:24.195Z,396.00
2019-06-07T10:44:29.708Z,408.00
2019-06-07T10:45:35.223Z,616.00
2019-06-07T10:46:40.750Z,692.00
2019-06-07T10:47:46.269Z,772.00
2019-06-07T10:48:51.781Z,776.00
2019-06-07T10:49:57.295Z,812.00
2019-06-07T10:51:04.095Z,572.00
2019-06-07T10:52:09.716Z,756.00
2019-06-07T10:53:13.858Z,512.00
2019-06-07T10:54:26.726Z,444.00
2019-06-07T10:55:24.886Z,660.00
2019-06-07T10:56:30.411Z,600.00
2019-06-07T10:57:35.923Z,548.00
2019-06-07T10:58:41.445Z,584.00
2019-06-07T10:59:46.967Z,644.00
2019-06-07T11:00:52.475Z,956.00
2019-06-07T11:01:57.997Z,928.00
2019-06-07T11:03:03.697Z,884.00
2019-06-07T11:04:09.604Z,828.00
2019-06-07T11:05:14.620Z,712.00
2019-06-07T11:06:20.072Z,608.00
2019-06-07T11:07:25.677Z,432.00
2019-06-07T11:08:31.113Z,436.00
2019-06-07T11:09:36.621Z,680.00
2019-06-07T11:10:42.146Z,448.00
2019-06-07T11:11:47.663Z,492.00
2019-06-07T11:12:53.189Z,616.00
2019-06-07T11:13:58.696Z,660.00
2019-06-07T11:15:04.539Z,688.00
2019-06-07T11:16:11.073Z,728.00
2019-06-07T11:17:15.920Z,744.00
2019-06-07T11:18:20.782Z,792.00
2019-06-07T11:19:26.294Z,608.00
2019-06-07T11:20:31.831Z,468.00
2019-06-07T11:21:37.327Z,776.00
2019-06-07T11:22:42.847Z,424.00
2019-06-07T11:23:48.392Z,380.00
2019-06-07T11:24:53.897Z,328.00
2019-06-07T11:25:59.409Z,368.00
2019-06-07T11:27:06.729Z,404.00
2019-06-07T11:28:10.658Z,376.00
2019-06-07T11:29:15.971Z,600.00
2019-06-07T11:30:21.495Z,724.00
2019-06-07T11:31:27.013Z,688.00
2019-06-07T11:32:32.522Z,636.00
2019-06-07T11:33:38.176Z,608.00
2019-06-07T11:34:43.563Z,604.00
2019-06-07T11:35:49.076Z,604.00
2019-06-07T11:36:54.601Z,620.00
2019-06-07T11:38:00.114Z,608.00
2019-06-07T11:39:06.502Z,292.00
2019-06-07T11:40:27.817Z,412.00
2019-06-07T11:41:17.861Z,416.00
2019-06-07T11:42:22.194Z,408.00
2019-06-07T11:43:27.714Z,584.00
2019-06-07T11:44:33.234Z,600.00
2019-06-07T11:45:38.749Z,576.00
2019-06-07T11:46:44.287Z,596.00
2019-06-07T11:47:49.786Z,592.00
2019-06-07T11:48:55.302Z,592.00
2019-06-07T11:50:00.854Z,596.00
2019-06-07T11:51:06.681Z,592.00
2019-06-07T11:52:11.865Z,592.00
2019-06-07T11:53:19.804Z,600.00
2019-06-07T11:54:22.905Z,592.00
2019-06-07T11:55:28.433Z,596.00
2019-06-07T11:56:33.944Z,600.00
2019-06-07T11:57:39.462Z,596.00
2019-06-07T11:58:44.999Z,604.00
2019-06-07T11:59:50.528Z,604.00
2019-06-07T12:00:56.022Z,604.00
2019-06-07T12:02:01.539Z,600.00
2019-06-07T12:03:07.385Z,600.00
2019-06-07T12:04:14.052Z,604.00
2019-06-07T12:05:20.077Z,600.00
2019-06-07T12:06:23.614Z,600.00
2019-06-07T12:07:29.141Z,596.00
2019-06-07T12:08:34.670Z,596.00
2019-06-07T12:09:55.546Z,596.00
2019-06-07T12:10:45.695Z,600.00
2019-06-07T12:11:51.231Z,600.00
2019-06-07T12:12:56.729Z,608.00
2019-06-07T12:14:02.260Z,604.00
2019-06-07T12:15:08.781Z,604.00
2019-06-07T12:16:13.399Z,596.00
2019-06-07T12:17:19.618Z,592.00
2019-06-07T12:18:24.338Z,588.00
2019-06-07T12:19:29.848Z,592.00
2019-06-07T12:20:35.373Z,592.00
2019-06-07T12:21:40.888Z,588.00
2019-06-07T12:22:46.428Z,592.00
2019-06-07T12:23:51.932Z,596.00
2019-06-07T12:24:57.455Z,596.00
2019-06-07T12:26:02.970Z,600.00
2019-06-07T12:27:08.501Z,640.00
2019-06-07T12:28:14.649Z,620.00
2019-06-07T12:29:19.533Z,580.00
2019-06-07T12:30:27.987Z,572.00
2019-06-07T12:31:30.580Z,564.00
2019-06-07T12:32:36.099Z,404.00
2019-06-07T12:33:41.608Z,588.00
2019-06-07T12:34:47.136Z,592.00
2019-06-07T12:35:52.651Z,588.00
2019-06-07T12:36:58.182Z,584.00
2019-06-07T12:38:03.710Z,580.00
2019-06-07T12:39:09.209Z,576.00
2019-06-07T12:40:19.399Z,568.00
2019-06-07T12:41:20.354Z,572.00
2019-06-07T12:42:25.782Z,576.00
2019-06-07T12:43:31.292Z,568.00
2019-06-07T12:44:36.814Z,560.00
2019-06-07T12:45:45.260Z,560.00
2019-06-07T12:46:47.855Z,560.00
2019-06-07T12:47:53.403Z,568.00
2019-06-07T12:48:58.888Z,604.00
2019-06-07T12:50:04.418Z,672.00
2019-06-07T12:51:09.940Z,808.00
2019-06-07T12:52:17.715Z,940.00
2019-06-07T12:53:25.930Z,940.00
2019-06-07T12:54:26.494Z,816.00
2019-06-07T12:55:32.023Z,792.00
2019-06-07T12:56:37.547Z,744.00
2019-06-07T12:57:43.058Z,692.00
2019-06-07T12:58:48.576Z,584.00
2019-06-07T12:59:54.102Z,624.00
2019-06-07T13:00:59.963Z,692.00
2019-06-07T13:02:05.137Z,724.00
2019-06-07T13:03:10.664Z,668.00
2019-06-07T13:04:16.387Z,632.00
2019-06-07T13:05:21.782Z,604.00
2019-06-07T13:06:27.991Z,608.00
2019-06-07T13:07:32.747Z,544.00
2019-06-07T13:08:38.260Z,428.00
2019-06-07T13:09:43.790Z,376.00
2019-06-07T13:10:49.298Z,352.00
2019-06-07T13:11:54.835Z,364.00
2019-06-07T13:13:00.346Z,348.00
2019-06-07T13:14:05.865Z,356.00
2019-06-07T13:15:14.985Z,480.00
2019-06-07T13:16:18.263Z,468.00
2019-06-07T13:17:22.429Z,528.00
2019-06-07T13:18:28.522Z,504.00
2019-06-07T13:19:33.473Z,492.00
2019-06-07T13:20:38.989Z,476.00
2019-06-07T13:21:44.520Z,464.00
2019-06-07T13:22:50.027Z,456.00
2019-06-07T13:23:55.547Z,460.00
2019-06-07T13:25:01.065Z,444.00
2019-06-07T13:26:06.588Z,432.00
2019-06-07T13:27:12.103Z,424.00
2019-06-07T13:28:18.907Z,360.00
2019-06-07T13:29:23.167Z,420.00
2019-06-07T13:30:29.047Z,428.00
2019-06-07T13:31:34.198Z,432.00
2019-06-07T13:32:39.705Z,452.00
2019-06-07T13:33:45.237Z,504.00
2019-06-07T13:34:50.757Z,452.00
2019-06-07T13:35:56.289Z,508.00
2019-06-07T13:37:01.800Z,532.00
2019-06-07T13:38:07.320Z,540.00
2019-06-07T13:39:12.831Z,548.00
2019-06-07T13:40:19.740Z,524.00
2019-06-07T13:41:36.808Z,460.00
2019-06-07T13:42:29.390Z,408.00
2019-06-07T13:43:34.911Z,340.00
2019-06-07T13:44:40.435Z,360.00
2019-06-07T13:45:45.957Z,440.00
2019-06-07T13:46:51.546Z,444.00
2019-06-07T13:47:57.002Z,500.00
2019-06-07T13:49:02.513Z,576.00
2019-06-07T13:50:08.034Z,704.00
2019-06-07T13:51:13.704Z,732.00
2019-06-07T13:52:19.107Z,856.00
2019-06-07T13:53:25.021Z,812.00
2019-06-07T13:54:30.107Z,864.00
2019-06-07T13:55:35.631Z,736.00
2019-06-07T13:57:00.833Z,684.00
2019-06-07T13:57:46.673Z,640.00
2019-06-07T13:58:52.204Z,616.00